createdAt,value
2023-03-17T00:00:00.275Z,34.28
2023-03-17T00:01:00.359Z,29.83
2023-03-17T00:02:00.390Z,32.44
2023-03-17T00:03:00.394Z,32.46
2023-03-17T00:04:00.480Z,38.11
2023-03-17T00:05:00.517Z,39.40
2023-03-17T00:06:00.550Z,42.58
2023-03-17T00:07:00.598Z,41.07
2023-03-17T00:08:00.593Z,46.15
2023-03-17T00:09:00.657Z,43.50
2023-03-17T00:10:00.698Z,39.04
2023-03-17T00:11:00.732Z,30.31
2023-03-17T00:12:00.771Z,25.00
2023-03-17T00:13:00.783Z,25.00
2023-03-17T00:14:00.823Z,27.76
2023-03-17T00:15:00.877Z,25.74
2023-03-17T00:16:01.005Z,30.71
2023-03-17T00:17:00.946Z,30.16
2023-03-17T00:18:00.977Z,32.79
2023-03-17T00:19:01.030Z,32.23
2023-03-17T00:20:01.057Z,32.13
2023-03-17T00:21:01.090Z,30.89
2023-03-17T00:22:01.328Z,33.44
2023-03-17T00:23:01.170Z,27.90
2023-03-17T00:24:01.230Z,38.36
2023-03-17T00:25:01.262Z,32.85
2023-03-17T00:26:01.292Z,35.14
2023-03-17T00:27:01.333Z,45.68
2023-03-17T00:28:01.377Z,41.24
2023-03-17T00:36:01.716Z,49.20
2023-03-17T00:37:01.722Z,48.66
2023-03-17T00:38:02.614Z,50.64
2023-03-17T00:39:01.777Z,44.93
2023-03-17T00:40:01.798Z,33.67
2023-03-17T00:41:01.886Z,25.00
2023-03-17T00:42:01.920Z,26.69
2023-03-17T00:43:01.957Z,27.52
2023-03-17T00:44:01.956Z,34.89
2023-03-17T00:45:02.014Z,38.44
2023-03-17T00:46:02.081Z,43.17
2023-03-17T00:47:02.120Z,42.25
2023-03-17T00:48:02.155Z,49.21
2023-03-17T00:49:02.193Z,53.87
2023-03-17T00:50:02.228Z,53.59
2023-03-17T00:51:02.270Z,35.45
2023-03-17T00:52:02.309Z,25.00
2023-03-17T00:53:02.343Z,25.00
2023-03-17T00:54:02.391Z,27.35
2023-03-17T00:55:02.469Z,27.47
2023-03-17T00:56:02.522Z,26.00
2023-03-17T00:57:02.555Z,30.36
2023-03-17T00:58:02.595Z,27.46
2023-03-17T00:59:02.685Z,25.65
2023-03-17T01:00:02.722Z,24.91
2023-03-17T01:01:02.821Z,26.43
2023-03-17T01:02:02.868Z,25.57
2023-03-17T01:03:02.887Z,27.31
2023-03-17T01:04:02.916Z,25.16
2023-03-17T01:05:06.794Z,32.61
2023-03-17T01:06:03.011Z,32.95
2023-03-17T01:07:03.001Z,34.16
2023-03-17T01:08:02.960Z,36.65
2023-03-17T01:09:02.946Z,41.52
2023-03-17T01:10:02.964Z,40.45
2023-03-17T01:11:02.967Z,30.78
2023-03-17T01:12:02.948Z,26.13
2023-03-17T01:13:02.929Z,26.58
2023-03-17T01:14:02.942Z,25.00
2023-03-17T01:15:02.927Z,26.98
2023-03-17T01:16:02.946Z,32.24
2023-03-17T01:17:02.885Z,39.76
2023-03-17T01:18:02.918Z,48.36
2023-03-17T01:19:03.038Z,51.56
2023-03-17T01:20:02.886Z,53.63
2023-03-17T01:21:02.894Z,56.54
2023-03-17T01:22:02.871Z,51.64
2023-03-17T01:23:02.862Z,55.26
2023-03-17T01:24:02.865Z,58.60
2023-03-17T01:25:02.852Z,61.51
2023-03-17T01:26:02.878Z,65.34
2023-03-17T01:27:02.845Z,66.64
2023-03-17T01:28:02.862Z,72.35
2023-03-17T01:29:02.890Z,83.77
2023-03-17T01:30:02.963Z,89.64
2023-03-17T01:31:03.028Z,89.68
2023-03-17T01:32:03.049Z,93.42
2023-03-17T01:33:03.163Z,93.44
2023-03-17T01:34:03.125Z,92.78
2023-03-17T01:35:03.183Z,92.30
2023-03-17T01:36:03.298Z,99.79
2023-03-17T01:37:03.267Z,99.76
2023-03-17T01:38:03.318Z,97.83
2023-03-17T01:39:03.404Z,98.11
2023-03-17T01:40:03.391Z,99.10
2023-03-17T01:41:03.489Z,98.97
2023-03-17T01:42:03.493Z,96.60
2023-03-17T01:43:03.518Z,93.95
2023-03-17T01:44:03.570Z,92.79
2023-03-17T01:45:03.608Z,90.29
2023-03-17T01:46:03.648Z,93.86
2023-03-17T01:47:03.687Z,96.77
2023-03-17T01:48:03.714Z,97.72
2023-03-17T01:49:03.769Z,96.42
2023-03-17T01:50:03.780Z,94.20
2023-03-17T01:51:03.793Z,95.53
2023-03-17T01:52:03.846Z,97.31
2023-03-17T01:53:03.891Z,98.68
2023-03-17T01:54:03.920Z,101.31
2023-03-17T01:55:03.951Z,101.85
2023-03-17T01:56:03.984Z,102.34
2023-03-17T01:57:04.001Z,104.85
2023-03-17T01:58:04.038Z,103.07
2023-03-17T01:59:04.033Z,101.03
2023-03-17T02:00:04.074Z,97.59
2023-03-17T02:01:04.153Z,98.36
2023-03-17T02:02:04.135Z,98.22
2023-03-17T02:03:04.129Z,98.58
2023-03-17T02:04:04.219Z,95.19
2023-03-17T02:05:04.229Z,100.86
2023-03-17T02:06:04.653Z,100.23
2023-03-17T02:07:04.243Z,96.57
2023-03-17T02:08:04.206Z,99.78
2023-03-17T02:09:04.241Z,95.53
2023-03-17T02:10:04.208Z,92.84
2023-03-17T02:11:04.317Z,89.85
2023-03-17T02:12:04.270Z,85.96
2023-03-17T02:13:04.293Z,84.89
2023-03-17T02:14:04.303Z,85.73
2023-03-17T02:15:04.306Z,83.42
2023-03-17T02:16:04.353Z,80.38
2023-03-17T02:17:04.308Z,79.06
2023-03-17T02:18:04.337Z,77.66
2023-03-17T02:19:04.311Z,77.50
2023-03-17T02:20:04.340Z,78.14
2023-03-17T02:21:04.343Z,76.30
2023-03-17T02:22:04.343Z,75.86
2023-03-17T02:23:04.349Z,77.61
2023-03-17T02:24:04.348Z,77.89
2023-03-17T02:25:04.353Z,77.36
2023-03-17T02:26:04.365Z,78.10
2023-03-17T02:27:04.348Z,76.85
2023-03-17T02:28:04.336Z,78.18
2023-03-17T02:29:04.337Z,79.82
2023-03-17T02:30:04.359Z,80.50
2023-03-17T02:31:04.360Z,80.09
2023-03-17T02:32:04.394Z,79.51
2023-03-17T02:33:04.418Z,79.45
2023-03-17T02:34:04.353Z,80.02
2023-03-17T02:35:04.352Z,83.08
2023-03-17T02:36:04.415Z,80.89
2023-03-17T02:37:04.360Z,81.68
2023-03-17T02:38:04.354Z,82.23
2023-03-17T02:39:04.379Z,82.70
2023-03-17T02:40:04.397Z,83.34
2023-03-17T02:41:04.394Z,84.99
2023-03-17T02:42:04.439Z,81.97
2023-03-17T02:43:04.412Z,84.68
2023-03-17T02:44:04.408Z,86.89
2023-03-17T02:45:04.420Z,85.66
2023-03-17T02:46:04.442Z,83.37
2023-03-17T02:47:04.424Z,74.80
2023-03-17T02:48:04.444Z,71.25
2023-03-17T02:49:04.462Z,76.52
2023-03-17T02:50:04.456Z,77.00
2023-03-17T02:51:04.471Z,76.67
2023-03-17T02:52:04.450Z,75.71
2023-03-17T02:53:04.487Z,76.74
2023-03-17T02:54:04.483Z,77.35
2023-03-17T02:55:04.501Z,79.75
2023-03-17T02:56:04.488Z,76.96
2023-03-17T02:57:04.515Z,76.93
2023-03-17T02:58:04.512Z,75.54
2023-03-17T02:59:04.491Z,74.78
2023-03-17T03:00:04.520Z,78.07
2023-03-17T03:01:04.498Z,80.66
2023-03-17T03:02:04.499Z,81.90
2023-03-17T03:03:04.495Z,74.87
2023-03-17T03:04:04.506Z,72.43
2023-03-17T03:05:04.503Z,69.54
2023-03-17T03:06:04.503Z,70.19
2023-03-17T03:07:04.517Z,72.73
2023-03-17T03:08:04.514Z,72.75
2023-03-17T03:09:04.500Z,77.16
2023-03-17T03:10:04.524Z,77.61
2023-03-17T03:11:04.532Z,80.33
2023-03-17T03:12:04.536Z,85.10
2023-03-17T03:13:04.523Z,83.23
2023-03-17T03:14:04.529Z,69.47
2023-03-17T03:15:04.562Z,65.74
2023-03-17T03:16:04.612Z,66.73
2023-03-17T03:17:04.539Z,67.55
2023-03-17T03:18:04.542Z,68.31
2023-03-17T03:19:04.569Z,71.03
2023-03-17T03:20:04.579Z,70.25
2023-03-17T03:21:04.551Z,66.76
2023-03-17T03:22:04.548Z,69.30
2023-03-17T03:23:04.537Z,64.59
2023-03-17T03:24:04.553Z,65.67
2023-03-17T03:25:04.542Z,67.12
2023-03-17T03:26:04.608Z,69.34
2023-03-17T03:27:04.556Z,70.16
2023-03-17T03:28:04.558Z,69.01
2023-03-17T03:29:04.542Z,70.39
2023-03-17T03:30:04.551Z,70.69
2023-03-17T03:31:04.628Z,69.04
2023-03-17T03:32:04.613Z,70.91
2023-03-17T03:33:04.760Z,69.30
2023-03-17T03:34:04.688Z,72.31
2023-03-17T03:35:04.680Z,75.48
2023-03-17T03:36:04.786Z,73.17
2023-03-17T03:37:04.728Z,73.76
2023-03-17T03:38:04.769Z,75.62
2023-03-17T03:39:04.834Z,72.75
2023-03-17T03:40:04.866Z,75.02
2023-03-17T03:41:04.906Z,78.41
2023-03-17T03:42:04.922Z,80.48
2023-03-17T03:43:16.232Z,82.93
2023-03-17T03:44:05.944Z,83.21
2023-03-17T03:45:04.908Z,84.44
2023-03-17T03:46:04.956Z,83.38
2023-03-17T03:47:04.912Z,68.89
2023-03-17T03:48:04.886Z,64.06
2023-03-17T03:49:04.917Z,65.27
2023-03-17T03:50:04.890Z,66.35
2023-03-17T03:51:04.917Z,69.66
2023-03-17T03:52:04.872Z,66.60
2023-03-17T03:53:04.855Z,66.97
2023-03-17T03:54:04.872Z,63.45
2023-03-17T03:55:04.856Z,66.79
2023-03-17T03:56:04.881Z,66.08
2023-03-17T03:57:04.849Z,63.54
2023-03-17T03:58:05.665Z,66.22
2023-03-17T03:59:04.813Z,63.58
2023-03-17T04:00:04.870Z,58.30
2023-03-17T04:01:04.872Z,64.67
2023-03-17T04:02:04.943Z,65.03
2023-03-17T04:03:05.022Z,66.10
2023-03-17T04:04:05.040Z,71.30
2023-03-17T04:05:05.061Z,68.20
2023-03-17T04:06:05.117Z,70.16
2023-03-17T04:07:05.088Z,74.41
2023-03-17T04:08:05.147Z,77.11
2023-03-17T04:09:05.118Z,87.22
2023-03-17T04:10:05.159Z,86.78
2023-03-17T04:11:05.177Z,97.41
2023-03-17T04:12:05.147Z,85.59
2023-03-17T04:13:05.144Z,75.51
2023-03-17T04:14:05.121Z,72.18
2023-03-17T04:15:05.180Z,68.53
2023-03-17T04:16:05.229Z,68.50
2023-03-17T04:17:05.174Z,69.06
2023-03-17T04:18:05.160Z,64.82
2023-03-17T06:01:12.785Z,88.53
2023-03-17T06:46:12.320Z,158.57
2023-03-17T11:30:08.560Z,261.85
2023-03-17T11:31:08.567Z,273.52
2023-03-17T11:32:08.678Z,272.00
2023-03-17T11:33:08.813Z,264.10
2023-03-17T11:34:08.766Z,249.22
2023-03-17T11:35:08.892Z,252.11
2023-03-17T11:36:08.949Z,250.00
2023-03-17T11:37:09.023Z,249.87
2023-03-17T11:38:09.013Z,249.62
2023-03-17T11:39:09.078Z,248.13
2023-03-17T11:40:09.384Z,247.20
2023-03-17T11:41:09.202Z,244.97
2023-03-17T11:42:09.195Z,245.10
2023-03-17T11:43:09.201Z,244.00
2023-03-17T11:44:09.273Z,244.27
2023-03-17T11:45:09.386Z,241.09
2023-03-17T11:46:09.280Z,240.65
2023-03-17T11:47:09.242Z,235.45
2023-03-17T11:48:09.224Z,224.56
2023-03-17T11:49:09.247Z,219.61
2023-03-17T11:50:09.412Z,221.21
2023-03-17T11:51:09.230Z,229.72
2023-03-17T11:52:09.210Z,211.01
2023-03-17T11:53:09.228Z,216.91
2023-03-17T11:54:09.207Z,211.71
2023-03-17T11:55:09.223Z,214.86
2023-03-17T11:56:09.236Z,212.74
2023-03-17T11:57:09.239Z,201.39
2023-03-17T11:58:09.240Z,128.25
2023-03-17T11:59:09.245Z,95.01
2023-03-17T12:00:09.275Z,79.26
2023-03-17T12:01:09.335Z,77.72
2023-03-17T12:02:09.332Z,85.16
2023-03-17T12:03:09.486Z,90.86
2023-03-17T12:04:09.509Z,100.97
2023-03-17T12:05:09.501Z,119.15
2023-03-17T12:06:09.509Z,134.15
2023-03-17T12:07:09.559Z,144.28
2023-03-17T12:08:09.619Z,149.89
2023-03-17T12:09:09.650Z,145.52
2023-03-17T12:10:09.656Z,149.25
2023-03-17T12:11:09.664Z,156.85
2023-03-17T12:12:09.719Z,159.83
2023-03-17T12:13:09.767Z,132.57
2023-03-17T12:14:09.764Z,69.02
2023-03-17T12:15:09.892Z,48.25
2023-03-17T12:16:10.409Z,32.38
2023-03-17T12:17:09.884Z,22.24
2023-03-17T12:18:09.940Z,19.26
2023-03-17T12:19:09.955Z,23.78
2023-03-17T12:20:10.411Z,24.00
2023-03-17T12:21:10.077Z,34.12
2023-03-17T12:22:10.095Z,37.62
2023-03-17T12:23:10.182Z,48.37
2023-03-17T12:24:10.191Z,42.04
2023-03-17T12:25:10.245Z,30.35
2023-03-17T12:26:10.298Z,22.24
2023-03-17T12:27:10.340Z,24.68
2023-03-17T12:28:10.427Z,29.66
2023-03-17T12:29:10.479Z,35.38
2023-03-17T12:30:10.907Z,33.16
2023-03-17T12:31:10.619Z,39.52
2023-03-17T12:32:10.639Z,47.07
2023-03-17T12:33:10.812Z,60.41
2023-03-17T12:34:10.712Z,74.87
2023-03-17T12:35:11.102Z,96.81
2023-03-17T12:36:10.952Z,100.20
2023-03-17T12:37:10.918Z,95.37
2023-03-17T12:38:10.959Z,89.20
2023-03-17T12:39:10.998Z,93.11
2023-03-17T12:40:11.074Z,95.25
2023-03-17T12:41:11.123Z,79.98
2023-03-17T12:42:11.197Z,77.26
2023-03-17T12:43:11.240Z,80.27
2023-03-17T12:44:11.289Z,89.77
2023-03-17T12:45:11.355Z,106.07
2023-03-17T12:46:11.447Z,118.66
2023-03-17T12:47:11.464Z,90.17
2023-03-17T13:40:13.149Z,163.54
2023-03-17T16:56:18.595Z,201.10
2023-03-17T16:57:18.540Z,202.49
2023-03-17T16:58:18.569Z,204.06
2023-03-17T16:59:18.602Z,202.91
2023-03-17T17:00:18.594Z,201.78
2023-03-17T17:01:18.737Z,202.78
2023-03-17T17:02:18.652Z,200.30
2023-03-17T17:03:18.742Z,200.76
2023-03-17T17:04:18.746Z,201.50
2023-03-17T17:05:18.728Z,201.92
2023-03-17T17:06:18.815Z,204.60
2023-03-17T17:07:18.803Z,202.57
2023-03-17T17:08:18.847Z,200.93
2023-03-17T17:09:18.850Z,201.00
2023-03-17T17:10:18.891Z,202.34
2023-03-17T17:11:18.960Z,202.36
2023-03-17T17:12:18.978Z,202.95
2023-03-17T17:13:18.984Z,204.26
2023-03-17T17:14:18.990Z,201.55
2023-03-17T17:15:19.046Z,201.96
2023-03-17T17:16:19.063Z,203.57
2023-03-17T17:17:19.078Z,203.86
2023-03-17T17:18:19.079Z,203.39
2023-03-17T17:19:19.128Z,204.44
2023-03-17T17:20:19.167Z,204.60
2023-03-17T17:21:19.183Z,202.69
2023-03-17T17:22:19.175Z,198.02
2023-03-17T17:23:19.243Z,198.67
2023-03-17T17:24:19.308Z,198.67
2023-03-17T17:25:19.322Z,200.03
2023-03-17T17:26:19.374Z,190.37
2023-03-17T17:27:19.352Z,188.47
2023-03-17T17:28:19.424Z,190.44
2023-03-17T17:29:19.448Z,191.61
2023-03-17T17:30:19.497Z,196.40
2023-03-17T17:31:19.534Z,197.37
2023-03-17T17:32:19.520Z,198.10
2023-03-17T17:33:19.544Z,198.37
2023-03-17T17:34:19.601Z,197.91
2023-03-17T17:35:19.605Z,200.25
2023-03-17T17:36:19.657Z,199.79
2023-03-17T17:37:19.677Z,199.42
2023-03-17T17:38:19.710Z,196.91
2023-03-17T17:39:19.736Z,188.56
2023-03-17T17:40:19.776Z,191.35
2023-03-17T17:41:19.817Z,188.19
2023-03-17T17:42:19.828Z,183.59
2023-03-17T17:43:19.929Z,187.97
2023-03-17T17:44:19.898Z,185.62
2023-03-17T17:45:19.939Z,188.50
2023-03-17T17:46:20.035Z,188.14
2023-03-17T17:47:20.036Z,189.68
2023-03-17T17:48:20.074Z,192.88
2023-03-17T17:49:20.085Z,195.32
2023-03-17T17:50:20.112Z,197.68
2023-03-17T17:51:20.162Z,198.08
2023-03-17T17:52:20.180Z,199.45
2023-03-17T17:53:20.213Z,195.36
2023-03-17T17:54:20.349Z,195.29
2023-03-17T17:55:20.283Z,189.72
2023-03-17T17:56:20.342Z,189.85
2023-03-17T17:57:20.336Z,190.67
2023-03-17T17:58:20.408Z,195.41
2023-03-17T17:59:20.421Z,196.70
2023-03-17T18:00:20.452Z,198.25
2023-03-17T18:01:20.550Z,200.40
2023-03-17T18:02:20.548Z,198.38
2023-03-17T18:03:20.568Z,192.75
2023-03-17T18:04:20.637Z,189.93
2023-03-17T18:05:20.651Z,183.49
2023-03-17T18:06:20.702Z,173.98
2023-03-17T18:07:20.734Z,174.02
2023-03-17T18:08:20.742Z,176.82
2023-03-17T18:09:20.772Z,179.16
2023-03-17T18:10:20.836Z,181.71
2023-03-17T18:11:20.873Z,182.71
2023-03-17T18:12:20.914Z,184.26
2023-03-17T18:13:20.987Z,180.16
2023-03-17T18:14:20.996Z,180.29
2023-03-17T18:15:21.018Z,184.20
2023-03-17T18:16:21.122Z,180.96
2023-03-17T18:17:21.081Z,184.66
2023-03-17T18:18:21.157Z,173.67
2023-03-17T18:19:21.171Z,179.00
2023-03-17T18:20:21.228Z,182.95
2023-03-17T18:21:21.278Z,182.72
2023-03-17T18:22:21.310Z,177.61
2023-03-17T18:23:21.321Z,176.58
2023-03-17T18:24:21.385Z,177.19
2023-03-17T18:25:21.467Z,175.56
2023-03-17T18:26:21.506Z,176.66
2023-03-17T18:27:21.506Z,162.52
2023-03-17T18:28:21.572Z,158.33
2023-03-17T18:29:21.607Z,157.10
2023-03-17T18:30:21.649Z,161.53
2023-03-17T18:31:21.750Z,162.86
2023-03-17T18:32:21.744Z,164.86
2023-03-17T18:33:21.800Z,167.20
2023-03-17T18:34:21.815Z,170.77
2023-03-17T18:35:21.920Z,173.49
2023-03-17T18:36:21.914Z,175.30
2023-03-17T18:37:22.114Z,176.21
2023-03-17T18:38:22.058Z,175.80
2023-03-17T18:39:22.042Z,170.38
2023-03-17T18:40:22.075Z,149.61
2023-03-17T18:41:22.167Z,141.60
2023-03-17T18:42:22.180Z,139.18
2023-03-17T18:43:22.235Z,142.81
2023-03-17T18:44:22.273Z,141.32
2023-03-17T18:45:22.339Z,137.36
2023-03-17T18:46:22.382Z,138.28
2023-03-17T18:47:22.425Z,134.55
2023-03-17T18:48:22.470Z,135.11
2023-03-17T18:49:22.520Z,128.61
2023-03-17T18:50:22.543Z,125.48
2023-03-17T18:51:22.642Z,123.28
2023-03-17T18:52:22.673Z,127.38
2023-03-17T18:53:22.792Z,133.79
2023-03-17T18:54:22.929Z,138.54
2023-03-17T18:55:23.001Z,143.62
2023-03-17T18:56:22.850Z,133.86
2023-03-17T18:57:22.940Z,121.95
2023-03-17T18:58:22.982Z,121.11
2023-03-17T18:59:23.056Z,126.45
2023-03-17T19:00:23.087Z,131.16
2023-03-17T19:01:23.206Z,130.24
2023-03-17T19:02:23.200Z,129.79
2023-03-17T19:03:23.303Z,137.94
2023-03-17T19:04:23.286Z,138.83
2023-03-17T19:05:23.333Z,136.19
2023-03-17T19:06:23.436Z,137.71
2023-03-17T19:07:23.460Z,135.77
2023-03-17T19:08:23.496Z,135.72
2023-03-17T19:09:23.542Z,124.91
2023-03-17T19:10:23.587Z,130.12
2023-03-17T19:11:23.663Z,137.55
2023-03-17T19:12:23.739Z,137.79
2023-03-17T19:13:23.758Z,140.69
2023-03-17T19:14:23.850Z,138.49
2023-03-17T19:15:23.872Z,137.59
2023-03-17T19:16:23.954Z,140.77
2023-03-17T19:17:23.982Z,141.18
2023-03-17T19:18:24.043Z,131.95
2023-03-17T19:19:24.082Z,131.28
2023-03-17T19:20:24.141Z,132.96
2023-03-17T19:21:24.196Z,140.88
2023-03-17T19:22:24.242Z,144.01
2023-03-17T19:23:24.305Z,147.67
2023-03-17T19:24:24.348Z,150.96
2023-03-17T19:25:24.406Z,150.80
2023-03-17T19:26:24.479Z,151.87
2023-03-17T19:27:24.522Z,153.20
2023-03-17T19:28:24.566Z,155.12
2023-03-17T19:29:24.607Z,158.40
2023-03-17T19:30:24.666Z,158.39
2023-03-17T19:31:24.946Z,164.15
2023-03-17T19:32:24.780Z,164.60
2023-03-17T19:33:24.822Z,165.03
2023-03-17T19:34:24.867Z,164.62
2023-03-17T19:35:24.938Z,166.03
2023-03-17T19:36:25.000Z,169.05
2023-03-17T19:37:25.056Z,162.42
2023-03-17T19:38:25.092Z,157.89
2023-03-17T19:39:25.143Z,160.53
2023-03-17T19:40:25.188Z,167.26
2023-03-17T19:41:25.201Z,171.04
2023-03-17T19:42:25.266Z,171.80
2023-03-17T19:43:39.455Z,171.37
2023-03-17T19:44:26.309Z,171.48
2023-03-17T19:45:26.089Z,170.87
2023-03-17T19:46:25.267Z,167.99
2023-03-17T19:47:25.263Z,167.27
2023-03-17T19:48:25.256Z,171.74
2023-03-17T19:49:25.250Z,175.51
2023-03-17T19:50:25.230Z,176.79
2023-03-17T19:51:25.243Z,173.42
2023-03-17T19:52:25.221Z,165.80
2023-03-17T19:53:25.191Z,158.27
2023-03-17T19:54:25.209Z,152.93
2023-03-17T19:55:25.200Z,148.24
2023-03-17T19:56:25.217Z,150.56
2023-03-17T19:57:25.225Z,152.86
2023-03-17T19:58:25.279Z,155.20
2023-03-17T19:59:25.319Z,164.37
2023-03-17T20:00:25.336Z,163.25
2023-03-17T20:01:25.411Z,166.08
2023-03-17T20:02:25.387Z,167.18
2023-03-17T20:03:26.378Z,164.29
2023-03-17T20:04:25.486Z,170.05
2023-03-17T20:05:25.545Z,172.05
2023-03-17T20:06:25.540Z,172.55
2023-03-17T20:07:25.621Z,166.05
2023-03-17T20:08:25.626Z,161.68
2023-03-17T20:09:25.671Z,163.31
2023-03-17T20:10:25.674Z,165.91
2023-03-17T20:11:25.768Z,161.95
2023-03-17T20:12:25.790Z,158.50
2023-03-17T20:13:25.818Z,160.55
2023-03-17T20:14:25.882Z,164.33
2023-03-17T20:15:25.930Z,163.34
2023-03-17T20:16:26.039Z,158.61
2023-03-17T20:17:25.975Z,158.78
2023-03-17T20:18:26.074Z,154.92
2023-03-17T20:19:26.067Z,155.29
2023-03-17T20:20:26.141Z,155.84
2023-03-17T20:21:26.151Z,158.67
2023-03-17T20:22:26.206Z,159.07
2023-03-17T20:23:26.238Z,162.70
2023-03-17T20:24:26.307Z,166.22
2023-03-17T20:25:26.348Z,169.23
2023-03-17T20:26:26.922Z,171.28
2023-03-17T20:27:26.407Z,175.46
2023-03-17T20:28:28.264Z,175.85
2023-03-17T20:29:26.466Z,168.67
2023-03-17T20:30:26.468Z,167.12
2023-03-17T20:31:26.488Z,166.59
2023-03-17T20:32:26.405Z,163.90
2023-03-17T20:33:26.391Z,162.49
2023-03-17T20:34:26.417Z,161.13
2023-03-17T20:35:26.392Z,162.54
2023-03-17T20:36:26.401Z,165.43
2023-03-17T20:37:26.397Z,168.90
2023-03-17T20:38:26.380Z,172.39
2023-03-17T22:10:28.457Z,218.38
2023-03-17T22:11:28.510Z,217.83
2023-03-17T22:12:28.542Z,218.17
2023-03-17T22:13:28.578Z,218.08
2023-03-17T22:14:28.614Z,218.36
2023-03-17T22:15:28.660Z,218.74
2023-03-17T22:16:28.719Z,218.74
2023-03-17T22:17:28.729Z,219.19
2023-03-17T22:18:28.747Z,218.77
2023-03-17T22:19:28.796Z,218.28
2023-03-17T22:20:28.852Z,218.62
2023-03-17T22:21:28.852Z,219.26
2023-03-17T22:22:28.926Z,220.38
2023-03-17T22:23:28.965Z,220.67
2023-03-17T22:24:29.004Z,220.28
2023-03-17T22:25:29.034Z,219.82
2023-03-17T22:26:29.074Z,219.58
2023-03-17T22:27:29.102Z,218.57
2023-03-17T22:28:29.151Z,219.08
2023-03-17T22:29:29.218Z,217.96
2023-03-17T22:30:29.286Z,217.18
2023-03-17T22:31:29.404Z,216.53
2023-03-17T22:32:29.340Z,217.04
2023-03-17T22:33:29.357Z,216.87
2023-03-17T22:34:29.408Z,216.10
2023-03-17T22:35:29.435Z,216.55
2023-03-17T22:36:29.523Z,216.85
2023-03-17T22:37:29.569Z,218.08
2023-03-17T22:38:29.594Z,218.57
2023-03-17T22:39:29.609Z,219.23
2023-03-17T22:40:30.234Z,219.48
2023-03-17T22:41:29.740Z,220.48
2023-03-17T22:42:29.751Z,219.81
2023-03-17T22:43:29.810Z,220.16
2023-03-17T22:44:29.880Z,219.79
2023-03-17T22:45:29.881Z,220.02
2023-03-17T22:46:29.928Z,219.86
2023-03-17T22:47:29.964Z,219.56
2023-03-17T22:48:30.052Z,219.17
2023-03-17T22:49:30.071Z,220.56
2023-03-17T22:50:30.470Z,219.61
2023-03-17T22:51:30.152Z,219.55
2023-03-17T22:52:30.187Z,219.62
2023-03-17T22:53:30.218Z,219.50
2023-03-17T22:54:30.268Z,220.24
2023-03-17T22:55:30.325Z,220.15
2023-03-17T22:56:30.390Z,220.95
2023-03-17T22:57:30.429Z,221.20
2023-03-17T22:58:30.459Z,221.75
2023-03-17T22:59:30.485Z,221.85
2023-03-17T23:00:30.816Z,221.31
2023-03-17T23:01:30.607Z,221.17
2023-03-17T23:02:30.622Z,221.65
2023-03-17T23:03:30.730Z,221.45
2023-03-17T23:04:30.700Z,221.80
2023-03-17T23:05:30.750Z,221.28
2023-03-17T23:06:30.834Z,220.61
2023-03-17T23:07:31.837Z,220.11
2023-03-17T23:08:31.090Z,220.97
2023-03-17T23:09:31.142Z,221.53
2023-03-17T23:10:31.440Z,219.42
2023-03-17T23:11:31.214Z,219.36
2023-03-17T23:12:31.253Z,219.91
2023-03-17T23:13:31.293Z,221.61
2023-03-17T23:14:31.335Z,221.65
2023-03-17T23:15:31.449Z,221.28
2023-03-17T23:16:31.478Z,221.97
2023-03-17T23:17:31.493Z,221.17
2023-03-17T23:18:31.518Z,221.58
2023-03-17T23:19:31.584Z,220.87
2023-03-17T23:20:31.864Z,219.41
2023-03-17T23:21:31.683Z,219.13
2023-03-17T23:22:31.717Z,218.18
2023-03-17T23:23:31.745Z,216.79
2023-03-17T23:24:31.862Z,216.77
2023-03-17T23:25:31.902Z,216.62
2023-03-17T23:26:32.036Z,217.04
2023-03-17T23:27:32.019Z,217.17
2023-03-17T23:28:32.070Z,216.71
2023-03-17T23:29:32.124Z,217.35
2023-03-17T23:30:32.421Z,217.42
2023-03-17T23:31:32.267Z,217.60
2023-03-17T23:32:32.356Z,218.24
2023-03-17T23:33:32.337Z,218.71
2023-03-17T23:34:32.379Z,218.86
2023-03-17T23:35:32.468Z,219.27
2023-03-17T23:36:32.537Z,219.45
2023-03-17T23:37:32.555Z,219.58
2023-03-17T23:38:32.900Z,219.63
2023-03-17T23:39:32.677Z,219.33
2023-03-17T23:40:33.049Z,219.16
2023-03-17T23:41:32.779Z,219.48
2023-03-17T23:42:32.823Z,219.67
2023-03-17T23:43:32.848Z,218.77
2023-03-17T23:44:32.926Z,219.26
2023-03-17T23:45:32.968Z,218.07
2023-03-17T23:46:33.047Z,217.43
2023-03-17T23:47:33.109Z,216.35
2023-03-17T23:48:33.134Z,216.41
2023-03-17T23:49:33.165Z,216.51
2023-03-17T23:50:33.643Z,217.51
2023-03-17T23:51:33.330Z,218.65
2023-03-17T23:52:33.324Z,219.70
2023-03-17T23:53:33.349Z,220.15
2023-03-17T23:54:33.413Z,219.73
2023-03-17T23:55:33.467Z,219.02
2023-03-17T23:56:33.516Z,218.92
2023-03-17T23:57:33.802Z,218.81
2023-03-17T23:58:33.612Z,218.60
2023-03-17T23:59:33.680Z,218.98
